Time;durP1;ratioP1;P1;durP2;ratioP2;P2;SDS_P1;SDS_P2;PMS_P1;PMS_P2;Temp;Humidity;BMP_temperature;BMP_pressure;BME280_temperature;BME280_humidity;BME280_pressure;Samples;Min_cycle;Max_cycle;Signal;HPM_P1;HPM_P2
2021/05/29 00:00:58;;;;;;;3.43;3.10;;;14.10;99.90;;;;;;4973812;28;20454;-84
2021/05/29 00:03:26;;;;;;;5.27;3.23;;;14.10;99.90;;;;;;4991941;28;20427;-89
2021/05/29 00:05:52;;;;;;;4.50;3.43;;;14.10;99.90;;;;;;4974276;28;20272;-89
2021/05/29 00:08:18;;;;;;;3.73;3.43;;;14.10;99.90;;;;;;4974048;28;20461;-88
2021/05/29 00:10:47;;;;;;;3.33;3.03;;;14.00;99.90;;;;;;4974185;28;20449;-88
2021/05/29 00:13:14;;;;;;;3.73;3.10;;;14.00;99.90;;;;;;4974723;28;20424;-89
2021/05/29 00:15:40;;;;;;;3.17;2.87;;;13.90;99.90;;;;;;4991234;28;20430;-89
2021/05/29 00:18:08;;;;;;;3.57;3.00;;;13.80;99.90;;;;;;4974087;28;20999;-83
2021/05/29 00:20:37;;;;;;;3.83;3.53;;;13.80;99.90;;;;;;4991302;28;20806;-89
2021/05/29 00:23:03;;;;;;;5.07;4.10;;;13.80;99.90;;;;;;4974014;28;20541;-89
2021/05/29 00:25:29;;;;;;;4.33;3.93;;;13.70;99.90;;;;;;4976128;28;20446;-89
2021/05/29 00:27:54;;;;;;;4.10;3.70;;;13.70;99.90;;;;;;4975528;28;20184;-90
2021/05/29 00:30:20;;;;;;;3.93;3.53;;;13.60;99.90;;;;;;4991268;28;20203;-84
2021/05/29 00:32:46;;;;;;;3.60;3.30;;;13.50;99.90;;;;;;4973784;28;20195;-83
2021/05/29 00:35:12;;;;;;;5.00;3.90;;;13.50;99.90;;;;;;4973791;28;20482;-83
2021/05/29 00:37:37;;;;;;;4.07;3.67;;;13.50;99.90;;;;;;4974181;28;20192;-84
2021/05/29 00:40:06;;;;;;;4.40;3.50;;;13.60;99.90;;;;;;4975336;28;20267;-83
2021/05/29 00:42:31;;;;;;;3.60;3.30;;;13.60;99.90;;;;;;4976781;28;20216;-85
2021/05/29 00:44:58;;;;;;;4.40;3.77;;;13.60;99.90;;;;;;4976605;28;20424;-82
2021/05/29 00:47:27;;;;;;;3.73;3.37;;;13.50;99.90;;;;;;4976974;28;20188;-84
2021/05/29 00:49:54;;;;;;;5.93;3.87;;;13.40;99.90;;;;;;4976495;28;20443;-83
2021/05/29 00:52:21;;;;;;;4.40;3.80;;;13.30;99.90;;;;;;4976771;28;20429;-88
2021/05/29 00:54:46;;;;;;;5.20;4.00;;;13.30;99.90;;;;;;4994232;28;20406;-89
2021/05/29 00:57:14;;;;;;;7.43;4.37;;;13.30;99.90;;;;;;4994145;28;20516;-90
2021/05/29 00:59:40;;;;;;;4.90;4.40;;;13.20;99.90;;;;;;4976902;28;20187;-89
2021/05/29 01:02:11;;;;;;;4.33;3.50;;;13.20;99.90;;;;;;4998461;28;20481;-89
2021/05/29 01:04:38;;;;;;;4.13;3.73;;;13.20;99.90;;;;;;4982524;28;20418;-90
2021/05/29 01:07:08;;;;;;;4.00;3.60;;;13.10;99.90;;;;;;4976627;28;20494;-89
2021/05/29 01:09:39;;;;;;;4.20;3.80;;;13.10;99.90;;;;;;4976675;28;20508;-83
2021/05/29 01:12:06;;;;;;;4.30;3.90;;;13.00;99.90;;;;;;4976673;28;20452;-83
2021/05/29 01:14:32;;;;;;;6.33;4.50;;;13.00;99.90;;;;;;4977223;28;20433;-83
2021/05/29 01:17:00;;;;;;;4.90;4.30;;;13.00;99.90;;;;;;4976867;28;20452;-83
2021/05/29 01:19:27;;;;;;;4.40;4.00;;;12.90;99.90;;;;;;4993865;28;20489;-83
2021/05/29 01:21:54;;;;;;;5.60;4.40;;;12.90;99.90;;;;;;4976174;28;20484;-89
2021/05/29 01:24:22;;;;;;;4.50;4.07;;;12.90;99.90;;;;;;4993891;28;20413;-84
2021/05/29 01:26:49;;;;;;;4.30;3.90;;;12.90;99.90;;;;;;4976468;28;20448;-89
2021/05/29 01:29:16;;;;;;;6.27;4.10;;;12.80;99.90;;;;;;4976268;28;20437;-83
2021/05/29 01:31:46;;;;;;;4.93;4.43;;;12.70;99.90;;;;;;4976148;28;20961;-88
2021/05/29 01:34:15;;;;;;;4.33;3.93;;;12.70;99.90;;;;;;4976149;28;20429;-82
2021/05/29 01:36:41;;;;;;;5.33;4.83;;;12.80;99.90;;;;;;4978101;28;20505;-88
2021/05/29 01:39:09;;;;;;;7.03;4.50;;;12.80;99.90;;;;;;4999015;28;20429;-83
2021/05/29 01:41:35;;;;;;;4.50;4.10;;;12.70;99.90;;;;;;4993220;28;20469;-88
2021/05/29 01:44:01;;;;;;;5.30;4.80;;;12.60;99.90;;;;;;4976136;28;20779;-83
2021/05/29 01:46:27;;;;;;;4.80;4.30;;;12.60;99.90;;;;;;4976202;28;20495;-88
2021/05/29 01:48:53;;;;;;;5.43;4.43;;;12.60;99.90;;;;;;4976219;28;20459;-89
2021/05/29 01:51:22;;;;;;;5.83;5.13;;;12.60;99.90;;;;;;4974636;28;20433;-84
2021/05/29 01:53:48;;;;;;;5.77;4.57;;;12.70;99.90;;;;;;4972696;28;20684;-88
2021/05/29 01:56:14;;;;;;;4.80;4.27;;;12.60;99.90;;;;;;4972645;28;20435;-84
2021/05/29 01:58:41;;;;;;;5.20;3.97;;;12.60;99.90;;;;;;4972747;28;20418;-83
2021/05/29 02:01:09;;;;;;;6.77;5.00;;;12.70;99.90;;;;;;4972096;28;20448;-88
2021/05/29 02:03:38;;;;;;;4.80;4.10;;;12.70;99.90;;;;;;4972789;28;20500;-89
2021/05/29 02:06:04;;;;;;;5.20;4.43;;;12.70;99.90;;;;;;4972699;28;20450;-88
2021/05/29 02:08:30;;;;;;;7.13;4.97;;;12.70;99.90;;;;;;4974332;28;20475;-84
2021/05/29 02:10:55;;;;;;;5.03;4.20;;;12.70;99.90;;;;;;4978960;28;20434;-89
2021/05/29 02:13:24;;;;;;;4.70;4.30;;;12.60;99.90;;;;;;4979791;28;20188;-86
2021/05/29 02:15:50;;;;;;;6.45;5.10;;;12.50;99.90;;;;;;4972491;28;20574;-87
2021/05/29 02:18:16;;;;;;;5.57;5.07;;;12.50;99.90;;;;;;4972820;28;20219;-88
2021/05/29 02:20:44;;;;;;;5.13;4.63;;;12.50;99.90;;;;;;4973416;28;20442;-84
2021/05/29 02:23:13;;;;;;;6.97;5.37;;;12.60;99.90;;;;;;4972355;28;20231;-84
2021/05/29 02:25:39;;;;;;;5.20;4.70;;;12.60;99.90;;;;;;4972454;28;20430;-90
2021/05/29 02:28:06;;;;;;;6.30;5.17;;;12.60;99.90;;;;;;4972081;28;20434;-83
2021/05/29 02:30:33;;;;;;;6.47;5.37;;;12.60;99.90;;;;;;4972374;28;20665;-83
2021/05/29 02:32:58;;;;;;;6.40;4.80;;;12.50;99.90;;;;;;4973560;28;20426;-83
2021/05/29 02:35:24;;;;;;;5.73;5.13;;;12.50;99.90;;;;;;4973216;28;20422;-84
2021/05/29 02:37:50;;;;;;;6.03;5.43;;;12.40;99.90;;;;;;4972119;28;20180;-89
2021/05/29 02:40:16;;;;;;;7.67;5.40;;;12.40;99.90;;;;;;4972247;28;20692;-84
2021/05/29 02:42:41;;;;;;;8.03;5.30;;;12.30;99.90;;;;;;4971943;28;20571;-86
2021/05/29 02:45:08;;;;;;;7.63;5.47;;;12.30;99.90;;;;;;4973569;28;20501;-83
2021/05/29 02:47:34;;;;;;;7.37;6.03;;;12.30;99.90;;;;;;4971887;28;20183;-83
2021/05/29 02:50:00;;;;;;;8.43;6.30;;;12.30;99.90;;;;;;4971669;28;20990;-84
2021/05/29 02:52:27;;;;;;;6.27;5.37;;;12.20;99.90;;;;;;4973453;28;20238;-88
2021/05/29 02:54:52;;;;;;;7.70;5.13;;;12.20;99.90;;;;;;4975066;28;20956;-90
2021/05/29 02:57:18;;;;;;;7.13;5.67;;;12.30;99.90;;;;;;4976028;28;20437;-82
2021/05/29 02:59:44;;;;;;;7.33;6.27;;;12.30;99.90;;;;;;4983369;28;20176;-83
2021/05/29 03:02:11;;;;;;;7.50;5.50;;;12.20;99.90;;;;;;4978628;28;20227;-89
2021/05/29 03:04:37;;;;;;;7.13;5.77;;;12.20;99.90;;;;;;4983871;28;20184;-84
2021/05/29 03:07:04;;;;;;;6.50;5.40;;;12.20;99.90;;;;;;4976023;28;20483;-83
2021/05/29 03:09:30;;;;;;;8.57;6.47;;;12.10;99.90;;;;;;4974925;28;20417;-83
2021/05/29 03:11:57;;;;;;;8.33;5.10;;;12.10;99.90;;;;;;4974738;28;20981;-89
2021/05/29 03:14:23;;;;;;;8.53;6.87;;;12.10;99.90;;;;;;4992031;28;20417;-89
2021/05/29 03:16:49;;;;;;;7.27;5.47;;;12.10;99.90;;;;;;4974842;28;20453;-83
2021/05/29 03:19:16;;;;;;;6.60;5.90;;;12.10;99.90;;;;;;4975845;28;20445;-83
2021/05/29 03:21:42;;;;;;;10.00;7.13;;;12.10;99.90;;;;;;4991846;28;20207;-89
2021/05/29 03:24:08;;;;;;;11.90;6.67;;;12.10;99.90;;;;;;4974799;28;20448;-89
2021/05/29 03:26:34;;;;;;;8.90;5.90;;;12.10;99.90;;;;;;4974797;28;20441;-87
2021/05/29 03:29:00;;;;;;;6.73;5.73;;;12.00;99.90;;;;;;4992579;28;20417;-89
2021/05/29 03:31:27;;;;;;;6.97;5.68;;;12.10;99.90;;;;;;4992116;28;20195;-87
2021/05/29 03:33:53;;;;;;;8.38;5.95;;;12.10;99.90;;;;;;4974725;28;20249;-87
2021/05/29 03:36:18;;;;;;;6.93;5.73;;;12.10;99.90;;;;;;4992111;28;20196;-90
2021/05/29 03:38:44;;;;;;;16.33;6.73;;;12.00;99.90;;;;;;4977003;28;20494;-83
2021/05/29 03:41:10;;;;;;;8.00;5.43;;;12.10;99.90;;;;;;4974378;28;20204;-89
2021/05/29 03:43:37;;;;;;;7.03;5.73;;;12.00;99.90;;;;;;4974408;28;20429;-82
2021/05/29 03:46:04;;;;;;;7.67;5.83;;;12.00;99.90;;;;;;4991623;28;20199;-89
2021/05/29 03:48:31;;;;;;;8.05;6.03;;;12.00;99.90;;;;;;4973949;28;20438;-90
2021/05/29 03:50:57;;;;;;;8.13;6.80;;;12.10;99.90;;;;;;4972955;28;20676;-83
2021/05/29 03:53:22;;;;;;;7.53;6.67;;;12.10;99.90;;;;;;4969379;28;20267;-85
2021/05/29 03:55:48;;;;;;;9.53;6.00;;;12.00;99.90;;;;;;4970843;28;20446;-91
2021/05/29 03:58:14;;;;;;;7.03;6.00;;;12.10;99.90;;;;;;4972449;28;20205;-83
2021/05/29 04:00:39;;;;;;;6.60;5.90;;;12.20;99.90;;;;;;4971341;28;20676;-88
2021/05/29 04:03:05;;;;;;;7.40;5.60;;;12.20;99.90;;;;;;4969206;28;20224;-84
2021/05/29 04:05:31;;;;;;;7.13;6.40;;;12.20;99.90;;;;;;4974729;28;20540;-83
2021/05/29 04:07:56;;;;;;;6.73;6.00;;;12.20;99.90;;;;;;4970301;28;20227;-89
2021/05/29 04:10:28;;;;;;;8.20;5.97;;;12.30;99.90;;;;;;4969567;28;20204;-89
2021/05/29 04:12:55;;;;;;;8.37;6.90;;;12.40;99.90;;;;;;4970187;28;20199;-88
2021/05/29 04:15:23;;;;;;;8.37;6.20;;;12.40;99.90;;;;;;4973048;28;20479;-83
2021/05/29 04:17:49;;;;;;;6.95;6.22;;;12.40;99.90;;;;;;4975417;28;20436;-83
2021/05/29 04:20:18;;;;;;;8.27;6.77;;;12.50;99.90;;;;;;4974964;28;20247;-83
2021/05/29 04:22:45;;;;;;;8.50;6.70;;;12.50;99.90;;;;;;4973929;28;20482;-83
2021/05/29 04:25:14;;;;;;;9.20;6.47;;;12.50;99.90;;;;;;4974131;28;20426;-88
2021/05/29 04:27:40;;;;;;;9.07;7.43;;;12.60;99.90;;;;;;4975732;28;20644;-88
2021/05/29 04:30:09;;;;;;;7.60;5.90;;;12.60;99.90;;;;;;4973889;28;20419;-88
2021/05/29 04:32:35;;;;;;;9.07;6.60;;;12.60;99.90;;;;;;4973766;28;20187;-83
2021/05/29 04:35:01;;;;;;;7.87;6.23;;;12.70;99.90;;;;;;4975382;28;20493;-89
2021/05/29 04:37:27;;;;;;;8.97;6.93;;;12.80;99.90;;;;;;4973985;28;20549;-83
2021/05/29 04:39:53;;;;;;;6.63;6.03;;;12.80;99.90;;;;;;4974795;28;20463;-83
2021/05/29 04:42:19;;;;;;;7.70;6.20;;;12.90;99.90;;;;;;4973738;28;20223;-87
2021/05/29 04:44:45;;;;;;;7.97;6.53;;;12.90;99.90;;;;;;4975112;28;20664;-83
2021/05/29 04:47:11;;;;;;;7.70;6.60;;;13.00;99.90;;;;;;4973708;28;20450;-89
2021/05/29 04:49:36;;;;;;;7.07;6.30;;;13.10;99.90;;;;;;5063243;28;20463;-87
2021/05/29 04:52:03;;;;;;;9.20;6.70;;;13.10;99.90;;;;;;4993425;28;20642;-88
2021/05/29 04:54:29;;;;;;;6.93;6.20;;;13.20;99.90;;;;;;5075676;28;20241;-90
2021/05/29 04:56:54;;;;;;;7.37;6.67;;;13.40;99.90;;;;;;5075491;28;20432;-90
2021/05/29 04:59:20;;;;;;;7.70;6.50;;;13.50;99.90;;;;;;5076318;28;20312;-88
2021/05/29 05:01:46;;;;;;;7.40;6.70;;;13.50;99.90;;;;;;5010584;28;20750;-88
2021/05/29 05:04:11;;;;;;;8.40;7.10;;;13.60;99.90;;;;;;4992206;28;20216;-87
2021/05/29 05:06:37;;;;;;;10.07;7.40;;;13.70;99.90;;;;;;4974327;28;20208;-87
2021/05/29 05:09:04;;;;;;;7.90;7.10;;;13.70;99.90;;;;;;5029497;28;20238;-90
2021/05/29 05:11:30;;;;;;;9.40;7.43;;;13.80;99.90;;;;;;5074837;28;20224;-83
2021/05/29 05:13:55;;;;;;;7.17;6.20;;;13.80;99.90;;;;;;5076336;28;20508;-84
2021/05/29 05:16:21;;;;;;;7.40;6.70;;;13.80;99.90;;;;;;5076050;28;20193;-90
2021/05/29 05:18:47;;;;;;;7.77;6.97;;;13.90;99.90;;;;;;5075265;28;20177;-87
2021/05/29 05:21:13;;;;;;;9.10;6.00;;;14.00;99.90;;;;;;5074773;28;20205;-87
2021/05/29 05:23:40;;;;;;;9.93;6.83;;;14.00;99.90;;;;;;5092081;28;20454;-89
2021/05/29 05:26:06;;;;;;;8.10;7.23;;;14.00;99.90;;;;;;5040216;28;20457;-89
2021/05/29 05:28:32;;;;;;;7.60;6.43;;;14.10;99.90;;;;;;4973409;28;20430;-89
2021/05/29 05:31:00;;;;;;;7.53;6.83;;;14.10;99.90;;;;;;4973711;28;20204;-90
2021/05/29 05:33:26;;;;;;;7.97;6.90;;;14.10;99.90;;;;;;4973058;28;20510;-88
2021/05/29 05:35:53;;;;;;;7.93;7.13;;;14.30;99.90;;;;;;4974533;28;20461;-90
2021/05/29 05:38:19;;;;;;;6.93;5.90;;;14.40;99.90;;;;;;4972897;28;20427;-88
2021/05/29 05:40:45;;;;;;;7.13;6.43;;;14.60;99.90;;;;;;5019297;28;20437;-83
2021/05/29 05:43:11;;;;;;;9.10;7.00;;;14.70;99.90;;;;;;4990194;28;20539;-82
2021/05/29 05:45:37;;;;;;;6.77;6.17;;;14.70;99.90;;;;;;4982898;28;20449;-91
2021/05/29 05:48:03;;;;;;;8.00;6.63;;;14.80;99.90;;;;;;4984632;28;20857;-87
2021/05/29 05:50:29;;;;;;;7.60;5.93;;;14.90;99.90;;;;;;4980687;28;20295;-87
2021/05/29 05:52:55;;;;;;;9.40;7.00;;;15.10;99.90;;;;;;4970891;28;20466;-83
2021/05/29 05:55:21;;;;;;;6.30;5.70;;;15.20;99.90;;;;;;4978473;28;20525;-83
2021/05/29 05:57:46;;;;;;;7.40;6.70;;;15.20;99.90;;;;;;4995228;28;20185;-91
2021/05/29 06:00:15;;;;;;;7.87;6.67;;;15.40;99.90;;;;;;4982061;28;20558;-85
2021/05/29 06:02:42;;;;;;;7.70;7.00;;;15.40;99.90;;;;;;5021138;28;20592;-86
2021/05/29 06:05:12;;;;;;;9.43;6.53;;;15.30;99.90;;;;;;5008287;28;20419;-90
2021/05/29 06:07:37;;;;;;;10.93;7.00;;;15.30;99.90;;;;;;5052233;28;20947;-85
2021/05/29 06:12:34;;;;;;;7.70;6.23;;;15.30;99.90;;;;;;5136782;27;20668;-69
2021/05/29 06:18:03;;;;;;;8.97;6.43;;;15.30;99.90;;;;;;5104995;28;20435;-68
2021/05/29 06:20:29;;;;;;;7.10;6.27;;;15.30;99.90;;;;;;5107762;28;20528;-69
2021/05/29 06:22:54;;;;;;;7.50;6.77;;;15.40;99.90;;;;;;5106529;28;20500;-67
2021/05/29 06:25:20;;;;;;;9.30;6.03;;;15.50;99.90;;;;;;5110953;28;20432;-67
2021/05/29 06:27:46;;;;;;;9.07;6.93;;;15.50;99.90;;;;;;5090925;28;20187;-68
2021/05/29 06:30:12;;;;;;;7.00;6.30;;;15.40;99.90;;;;;;5104773;28;20176;-68
2021/05/29 06:32:39;;;;;;;7.20;6.50;;;15.50;99.90;;;;;;5108170;28;20186;-70
2021/05/29 06:35:06;;;;;;;9.70;7.10;;;15.60;99.90;;;;;;5108332;28;20419;-66
2021/05/29 06:37:34;;;;;;;9.13;8.23;;;15.70;99.90;;;;;;5110424;28;20963;-67
2021/05/29 06:39:59;;;;;;;7.17;6.47;;;15.90;99.90;;;;;;5108504;28;20440;-70
2021/05/29 06:42:25;;;;;;;9.50;7.23;;;16.10;99.90;;;;;;5105980;28;20940;-69
2021/05/29 06:44:51;;;;;;;9.87;6.60;;;16.20;99.90;;;;;;5107759;28;20617;-69
2021/05/29 06:47:16;;;;;;;9.90;7.57;;;16.40;99.90;;;;;;5108275;28;20200;-67
2021/05/29 06:49:42;;;;;;;9.60;7.37;;;16.50;99.90;;;;;;5108202;28;20226;-68
2021/05/29 06:52:14;;;;;;;6.73;6.13;;;16.60;99.90;;;;;;5110629;28;20222;-68
2021/05/29 06:59:55;;;;;;;9.30;6.40;;;17.20;99.90;;;;;;5108247;28;20931;-66
2021/05/29 07:02:21;;;;;;;8.17;6.57;;;17.40;99.90;;;;;;5106116;28;20432;-68
2021/05/29 07:04:46;;;;;;;6.57;5.93;;;17.60;99.90;;;;;;5108850;28;20183;-68
2021/05/29 07:07:12;;;;;;;8.13;6.53;;;17.80;99.90;;;;;;5106952;28;20630;-69
2021/05/29 07:09:38;;;;;;;6.97;6.37;;;17.80;99.90;;;;;;5110511;28;20541;-68
2021/05/29 07:12:04;;;;;;;9.40;7.00;;;17.90;99.90;;;;;;5107904;28;20308;-69
2021/05/29 07:14:29;;;;;;;7.07;6.37;;;18.00;99.90;;;;;;5107063;28;20498;-68
2021/05/29 07:16:56;;;;;;;6.33;5.70;;;18.00;99.90;;;;;;5107395;28;20511;-66
2021/05/29 07:19:23;;;;;;;9.73;6.77;;;18.10;99.90;;;;;;5106535;28;20189;-70
2021/05/29 07:21:50;;;;;;;5.93;5.43;;;18.30;99.90;;;;;;5104303;28;20436;-70
2021/05/29 07:24:17;;;;;;;7.63;6.13;;;18.50;99.90;;;;;;5092372;28;20554;-67
2021/05/29 07:26:43;;;;;;;7.70;6.10;;;18.60;99.90;;;;;;5092429;28;20487;-67
2021/05/29 07:29:09;;;;;;;6.50;5.93;;;18.60;99.90;;;;;;5091464;28;20386;-67
2021/05/29 07:31:34;;;;;;;7.37;6.30;;;18.80;99.90;;;;;;5091863;28;20475;-69
2021/05/29 07:34:00;;;;;;;7.30;6.30;;;18.90;99.90;;;;;;5093007;28;20177;-69
2021/05/29 07:36:26;;;;;;;7.50;6.07;;;19.20;99.90;;;;;;5093753;28;20632;-68
2021/05/29 07:38:52;;;;;;;12.03;5.67;;;19.00;99.90;;;;;;5094267;28;20265;-68
2021/05/29 07:41:18;;;;;;;6.53;5.90;;;19.10;99.90;;;;;;5093834;28;20513;-69
2021/05/29 07:43:44;;;;;;;7.57;5.60;;;19.40;99.90;;;;;;5093659;28;20181;-67
2021/05/29 07:46:10;;;;;;;5.90;5.30;;;19.30;99.90;;;;;;5092207;28;20553;-69
2021/05/29 07:48:37;;;;;;;5.27;4.77;;;19.20;99.90;;;;;;5093531;28;20181;-67
2021/05/29 07:51:03;;;;;;;5.73;5.23;;;19.70;99.90;;;;;;5094727;28;20960;-69
2021/05/29 07:53:40;;;;;;;6.23;5.67;;;19.60;99.90;;;;;;5094281;28;20412;-69
2021/05/29 07:56:10;;;;;;;6.33;5.73;;;19.80;99.90;;;;;;5094498;28;20469;-67
2021/05/29 07:58:36;;;;;;;5.97;5.37;;;19.60;99.90;;;;;;5093272;28;20414;-67
2021/05/29 08:01:03;;;;;;;6.13;5.63;;;19.60;99.90;;;;;;5093548;28;20838;-67
2021/05/29 08:03:31;;;;;;;5.37;4.97;;;19.90;99.90;;;;;;5094596;28;20453;-70
2021/05/29 08:05:57;;;;;;;6.27;5.30;;;20.10;99.90;;;;;;5094863;28;20490;-67
2021/05/29 08:08:24;;;;;;;6.03;5.50;;;20.30;99.90;;;;;;5093636;28;20458;-68
2021/05/29 08:10:52;;;;;;;4.80;4.50;;;20.50;99.90;;;;;;5090728;28;20537;-67
2021/05/29 08:13:18;;;;;;;5.53;5.00;;;20.60;99.90;;;;;;5091410;28;20436;-67
2021/05/29 08:15:47;;;;;;;5.33;4.70;;;20.70;99.90;;;;;;5091499;28;20467;-67
2021/05/29 08:18:16;;;;;;;5.30;4.90;;;20.70;99.90;;;;;;5092519;28;20836;-67
2021/05/29 08:20:43;;;;;;;4.53;4.20;;;21.10;99.90;;;;;;5093401;28;20454;-68
2021/05/29 08:23:08;;;;;;;9.63;5.03;;;20.90;99.90;;;;;;5095264;28;20435;-70
2021/05/29 08:25:34;;;;;;;4.87;4.47;;;20.50;99.90;;;;;;5095315;28;20448;-69
2021/05/29 08:28:00;;;;;;;4.93;4.53;;;20.60;99.90;;;;;;5095193;28;20209;-68
2021/05/29 08:30:27;;;;;;;4.83;4.50;;;20.60;99.90;;;;;;5094404;28;20459;-68
2021/05/29 08:32:52;;;;;;;4.27;3.87;;;20.40;99.90;;;;;;5094286;28;20413;-67
2021/05/29 08:35:18;;;;;;;6.73;4.37;;;20.40;99.90;;;;;;5093471;28;20949;-69
2021/05/29 08:37:45;;;;;;;4.53;4.13;;;20.60;99.90;;;;;;5094702;28;20184;-68
2021/05/29 08:40:14;;;;;;;3.97;3.67;;;20.40;99.90;;;;;;5092876;28;20187;-66
2021/05/29 08:42:42;;;;;;;4.00;3.67;;;20.70;99.90;;;;;;5092866;28;20429;-67
2021/05/29 08:45:09;;;;;;;4.97;4.43;;;20.90;99.90;;;;;;5090491;28;20494;-66
2021/05/29 08:47:35;;;;;;;4.10;3.63;;;20.70;99.90;;;;;;5092587;28;20460;-67
2021/05/29 08:50:01;;;;;;;4.17;3.70;;;21.00;99.90;;;;;;5093117;28;20428;-67
2021/05/29 08:52:26;;;;;;;4.90;4.40;;;21.10;99.90;;;;;;5093239;28;20467;-68
2021/05/29 08:54:55;;;;;;;4.20;3.90;;;21.40;99.90;;;;;;5082711;28;20244;-68
2021/05/29 08:57:22;;;;;;;6.13;5.30;;;21.50;99.90;;;;;;5089455;28;20275;-70
2021/05/29 08:59:47;;;;;;;6.20;4.13;;;21.90;99.90;;;;;;5089531;28;20428;-70
2021/05/29 09:02:13;;;;;;;6.40;4.60;;;21.80;99.90;;;;;;5088825;28;20461;-67
2021/05/29 09:05:05;;;;;;;4.17;3.67;;;22.30;99.90;;;;;;5090310;28;20172;-67
2021/05/29 09:07:31;;;;;;;4.53;3.97;;;22.60;99.90;;;;;;5090045;28;20277;-67
2021/05/29 09:10:21;;;;;;;5.17;4.13;;;22.60;99.90;;;;;;5089887;28;20766;-67
2021/05/29 09:13:23;;;;;;;5.17;3.90;;;22.60;99.90;;;;;;5089934;28;20191;-70
2021/05/29 09:15:49;;;;;;;4.23;3.90;;;22.40;99.90;;;;;;5084183;28;20460;-69
2021/05/29 09:18:36;;;;;;;5.57;4.00;;;22.30;99.90;;;;;;5086923;28;20421;-68
2021/05/29 09:21:21;;;;;;;4.13;3.57;;;22.20;99.90;;;;;;5066035;28;20457;-67
2021/05/29 09:23:52;;;;;;;3.70;3.40;;;22.50;99.90;;;;;;5066341;28;20403;-69
2021/05/29 09:26:23;;;;;;;3.87;3.57;;;22.30;99.90;;;;;;5083578;28;20457;-67
2021/05/29 09:28:50;;;;;;;3.93;3.63;;;22.00;99.90;;;;;;5087169;28;20413;-67
2021/05/29 09:31:17;;;;;;;4.13;3.30;;;22.20;99.90;;;;;;5088312;28;20468;-67
2021/05/29 09:33:45;;;;;;;4.10;3.80;;;22.40;99.90;;;;;;5083856;28;20989;-67
2021/05/29 09:36:13;;;;;;;3.70;3.40;;;22.20;99.90;;;;;;5090159;28;20466;-68
2021/05/29 09:38:49;;;;;;;3.60;3.30;;;21.90;99.90;;;;;;5091467;28;20948;-69
2021/05/29 09:41:27;;;;;;;5.40;3.13;;;22.10;99.90;;;;;;5093157;28;20444;-67
2021/05/29 09:44:14;;;;;;;3.00;2.80;;;22.30;99.90;;;;;;5075703;28;21030;-67
2021/05/29 09:46:51;;;;;;;3.40;3.20;;;22.70;99.70;;;;;;5091255;28;20445;-68
2021/05/29 09:49:17;;;;;;;3.77;3.47;;;22.90;99.90;;;;;;5080267;28;20409;-69
2021/05/29 09:51:43;;;;;;;3.63;3.37;;;23.20;99.90;;;;;;5092759;28;20464;-66
2021/05/29 09:54:11;;;;;;;2.93;2.73;;;23.10;99.80;;;;;;5089561;28;20586;-70
2021/05/29 09:56:44;;;;;;;3.80;3.37;;;23.20;99.10;;;;;;5093188;28;20283;-67
2021/05/29 09:59:11;;;;;;;2.87;2.67;;;22.60;98.20;;;;;;5075721;28;20435;-70
2021/05/29 10:01:47;;;;;;;2.70;2.50;;;22.20;97.90;;;;;;5093615;28;21036;-69
2021/05/29 10:04:27;;;;;;;2.47;2.27;;;22.40;97.30;;;;;;5071906;28;20432;-70
2021/05/29 10:06:56;;;;;;;2.50;2.30;;;22.50;96.80;;;;;;5072757;28;20442;-67
2021/05/29 10:09:22;;;;;;;2.40;2.30;;;22.50;97.10;;;;;;5071232;28;20906;-67
2021/05/29 10:11:48;;;;;;;2.37;2.13;;;22.60;95.70;;;;;;5070826;28;20864;-69
2021/05/29 10:14:14;;;;;;;6.60;2.03;;;22.70;95.20;;;;;;5071074;28;20460;-70
2021/05/29 10:16:40;;;;;;;2.60;2.40;;;23.20;95.50;;;;;;5071419;28;20226;-67
2021/05/29 10:19:08;;;;;;;2.50;1.90;;;22.90;95.80;;;;;;5071718;28;20185;-67
2021/05/29 10:21:36;;;;;;;2.40;2.20;;;22.30;96.10;;;;;;5073454;28;20532;-67
2021/05/29 10:24:03;;;;;;;2.47;2.27;;;22.70;95.90;;;;;;5085590;28;20421;-70
2021/05/29 10:26:30;;;;;;;2.30;2.10;;;22.60;95.40;;;;;;5093531;28;20429;-66
2021/05/29 10:28:57;;;;;;;2.60;2.40;;;22.70;95.90;;;;;;5076149;28;20427;-70
2021/05/29 10:31:24;;;;;;;2.50;2.30;;;22.40;96.00;;;;;;5072892;28;20535;-68
2021/05/29 10:33:49;;;;;;;2.20;2.10;;;22.60;95.60;;;;;;5071529;28;20464;-70
2021/05/29 10:36:37;;;;;;;2.20;2.10;;;22.60;94.80;;;;;;5073187;28;20473;-69
2021/05/29 10:39:08;;;;;;;1.93;1.83;;;22.50;94.60;;;;;;5072607;28;20542;-67
2021/05/29 10:42:05;;;;;;;2.63;2.43;;;22.60;94.80;;;;;;5073203;28;20446;-67
2021/05/29 10:44:41;;;;;;;2.53;2.33;;;23.00;94.40;;;;;;5072999;28;20409;-69
2021/05/29 10:47:15;;;;;;;2.70;2.00;;;22.90;95.70;;;;;;5073077;28;20444;-69
2021/05/29 10:49:46;;;;;;;2.43;2.23;;;22.60;94.90;;;;;;5072692;28;20775;-69
2021/05/29 10:52:36;;;;;;;2.17;2.07;;;23.00;95.20;;;;;;5072420;28;20506;-70
2021/05/29 10:55:17;;;;;;;2.13;2.03;;;23.40;94.50;;;;;;5072336;28;20429;-69
2021/05/29 10:57:57;;;;;;;2.20;2.10;;;22.90;94.00;;;;;;5084303;28;20469;-67
2021/05/29 11:00:38;;;;;;;2.00;1.90;;;22.70;94.40;;;;;;5095962;28;20478;-67
2021/05/29 11:03:25;;;;;;;6.37;2.60;;;22.80;95.00;;;;;;5096044;28;20502;-68
2021/05/29 11:05:56;;;;;;;2.20;2.00;;;22.40;94.40;;;;;;5097353;28;20448;-68
2021/05/29 11:08:47;;;;;;;2.13;2.03;;;22.90;94.50;;;;;;5095755;28;20816;-67
2021/05/29 11:14:20;;;;;;;3.03;1.93;;;22.90;93.50;;;;;;5097238;28;20406;-69
2021/05/29 11:16:46;;;;;;;1.80;1.70;;;23.00;94.00;;;;;;5095541;28;20445;-67
2021/05/29 11:19:21;;;;;;;2.30;2.20;;;23.20;92.80;;;;;;5095290;28;20439;-69
2021/05/29 11:22:08;;;;;;;2.70;2.50;;;23.30;92.70;;;;;;5096044;28;20193;-67
2021/05/29 11:24:38;;;;;;;3.80;2.23;;;22.60;94.50;;;;;;5094610;28;20894;-67
2021/05/29 11:27:05;;;;;;;2.80;2.60;;;22.50;95.20;;;;;;5094293;28;20444;-69
2021/05/29 11:29:52;;;;;;;3.13;2.50;;;23.00;95.10;;;;;;5094625;28;20406;-67
2021/05/29 11:35:32;;;;;;;2.50;2.30;;;23.40;94.20;;;;;;5094797;28;20437;-67
2021/05/29 11:38:07;;;;;;;1.97;1.87;;;23.40;93.80;;;;;;5095122;28;20401;-67
2021/05/29 11:41:13;;;;;;;2.17;1.60;;;23.50;93.40;;;;;;5096664;28;20525;-70
2021/05/29 11:43:51;;;;;;;1.60;1.50;;;22.90;90.30;;;;;;5096525;28;20836;-67
2021/05/29 11:46:35;;;;;;;2.60;2.40;;;22.70;90.50;;;;;;5096570;28;20437;-67
2021/05/29 11:49:03;;;;;;;2.00;1.90;;;22.80;91.70;;;;;;5092978;28;20417;-67
2021/05/29 11:51:35;;;;;;;2.23;2.13;;;23.00;92.00;;;;;;5094242;28;20867;-69
2021/05/29 11:54:13;;;;;;;2.13;2.00;;;23.40;92.60;;;;;;5094112;28;20781;-67
2021/05/29 11:56:44;;;;;;;5.50;2.93;;;23.90;92.20;;;;;;5094244;28;20440;-67
2021/05/29 11:59:13;;;;;;;2.13;1.93;;;24.10;90.50;;;;;;5093985;28;20402;-70
2021/05/29 12:01:41;;;;;;;2.63;2.13;;;24.00;90.30;;;;;;5094060;28;20999;-70
2021/05/29 12:04:12;;;;;;;2.70;2.50;;;23.80;90.70;;;;;;5094084;28;20836;-67
2021/05/29 12:06:50;;;;;;;2.70;2.50;;;23.20;91.10;;;;;;5096356;28;20436;-67
2021/05/29 12:09:23;;;;;;;2.77;2.57;;;23.30;90.80;;;;;;5095775;28;20816;-67
2021/05/29 12:11:58;;;;;;;2.50;2.30;;;23.10;90.70;;;;;;5095517;28;21066;-69
2021/05/29 12:14:25;;;;;;;2.13;2.03;;;23.50;91.20;;;;;;5095929;28;20408;-69
2021/05/29 12:17:08;;;;;;;1.77;1.67;;;23.50;90.40;;;;;;5094576;28;20445;-68
2021/05/29 12:19:53;;;;;;;2.10;1.63;;;23.50;89.40;;;;;;5095802;28;20509;-69
2021/05/29 12:22:22;;;;;;;1.90;1.80;;;23.30;90.10;;;;;;5094608;28;20437;-68
2021/05/29 12:25:02;;;;;;;1.80;1.70;;;23.20;89.90;;;;;;5095620;28;20445;-69
2021/05/29 12:27:31;;;;;;;1.80;1.70;;;22.80;89.60;;;;;;5095593;28;20450;-67
2021/05/29 12:30:24;;;;;;;2.50;1.87;;;23.00;90.50;;;;;;5095404;28;20515;-67
2021/05/29 12:32:49;;;;;;;1.93;1.83;;;23.30;90.70;;;;;;5093031;28;20514;-67
2021/05/29 12:35:32;;;;;;;2.37;2.17;;;23.40;90.70;;;;;;5095278;28;20422;-67
2021/05/29 12:38:15;;;;;;;2.40;2.20;;;22.80;91.00;;;;;;5095062;28;20605;-70
2021/05/29 12:41:07;;;;;;;2.10;1.90;;;22.70;90.70;;;;;;5095248;28;20519;-68
2021/05/29 12:43:33;;;;;;;2.40;2.20;;;22.70;90.30;;;;;;5095128;28;20398;-68
2021/05/29 12:45:59;;;;;;;2.30;2.10;;;22.90;90.90;;;;;;5095295;28;20521;-69
2021/05/29 12:48:25;;;;;;;1.80;1.70;;;22.90;90.00;;;;;;5095242;28;20203;-69
2021/05/29 12:50:59;;;;;;;2.73;2.47;;;23.10;90.90;;;;;;5095008;28;20238;-67
2021/05/29 12:53:27;;;;;;;4.00;2.40;;;23.10;91.50;;;;;;5095007;28;20164;-69
2021/05/29 12:56:08;;;;;;;4.83;3.20;;;23.00;92.00;;;;;;5095079;28;20436;-69
2021/05/29 12:58:34;;;;;;;2.40;2.20;;;23.10;91.60;;;;;;5094925;28;20497;-67
2021/05/29 13:09:22;;;;;;;2.70;2.23;;;22.60;92.30;;;;;;5095040;28;20484;-69
2021/05/29 13:11:48;;;;;;;3.27;2.17;;;22.50;92.30;;;;;;5094326;28;20492;-69
2021/05/29 13:14:17;;;;;;;3.30;2.67;;;23.00;92.90;;;;;;5094618;28;20898;-70
2021/05/29 13:16:52;;;;;;;2.63;2.30;;;23.30;91.70;;;;;;5093359;28;20464;-70
2021/05/29 13:19:21;;;;;;;2.33;2.13;;;23.40;90.70;;;;;;5094470;28;20401;-67